sensor_id;sensor_type;location;lat;lon;timestamp;temperature;humidity
52979;DHT22;63430;53.186;6.598;2023-03-14T00:00:17;9.30;99.90
52979;DHT22;63430;53.186;6.598;2023-03-14T00:02:20;9.40;99.90
52979;DHT22;63430;53.186;6.598;2023-03-14T00:04:23;9.40;99.90
52979;DHT22;63430;53.186;6.598;2023-03-14T00:06:26;9.40;99.90
52979;DHT22;63430;53.186;6.598;2023-03-14T00:08:28;9.50;99.90
52979;DHT22;63430;53.186;6.598;2023-03-14T00:10:31;9.40;99.90
52979;DHT22;63430;53.186;6.598;2023-03-14T00:12:34;9.50;99.90
52979;DHT22;63430;53.186;6.598;2023-03-14T00:14:39;9.60;99.90
52979;DHT22;63430;53.186;6.598;2023-03-14T00:16:42;9.60;99.90
52979;DHT22;63430;53.186;6.598;2023-03-14T00:18:50;9.70;99.90
52979;DHT22;63430;53.186;6.598;2023-03-14T00:20:53;9.70;99.90
52979;DHT22;63430;53.186;6.598;2023-03-14T00:22:55;10.30;99.90
52979;DHT22;63430;53.186;6.598;2023-03-14T00:24:58;9.80;99.90
52979;DHT22;63430;53.186;6.598;2023-03-14T00:27:01;9.90;99.90
52979;DHT22;63430;53.186;6.598;2023-03-14T00:29:03;9.90;99.90
52979;DHT22;63430;53.186;6.598;2023-03-14T00:31:11;10.00;99.90
52979;DHT22;63430;53.186;6.598;2023-03-14T00:33:15;10.00;99.90
52979;DHT22;63430;53.186;6.598;2023-03-14T00:35:20;10.00;99.90
52979;DHT22;63430;53.186;6.598;2023-03-14T00:37:23;10.00;99.90
52979;DHT22;63430;53.186;6.598;2023-03-14T00:39:26;10.00;99.90
52979;DHT22;63430;53.186;6.598;2023-03-14T00:41:28;10.00;99.90
52979;DHT22;63430;53.186;6.598;2023-03-14T00:43:30;10.00;99.90
52979;DHT22;63430;53.186;6.598;2023-03-14T00:45:33;10.00;99.90
52979;DHT22;63430;53.186;6.598;2023-03-14T00:47:38;10.10;99.90
52979;DHT22;63430;53.186;6.598;2023-03-14T00:49:42;10.10;99.90
52979;DHT22;63430;53.186;6.598;2023-03-14T00:51:53;10.10;99.90
52979;DHT22;63430;53.186;6.598;2023-03-14T00:53:58;10.70;99.90
52979;DHT22;63430;53.186;6.598;2023-03-14T00:56:03;10.20;99.90
52979;DHT22;63430;53.186;6.598;2023-03-14T00:58:06;10.10;99.90
52979;DHT22;63430;53.186;6.598;2023-03-14T01:00:14;10.10;99.90
52979;DHT22;63430;53.186;6.598;2023-03-14T01:02:17;10.20;99.90
52979;DHT22;63430;53.186;6.598;2023-03-14T01:04:22;10.20;99.90
52979;DHT22;63430;53.186;6.598;2023-03-14T01:06:27;10.20;99.90
52979;DHT22;63430;53.186;6.598;2023-03-14T01:08:30;10.20;99.90
52979;DHT22;63430;53.186;6.598;2023-03-14T01:10:33;10.20;99.90
52979;DHT22;63430;53.186;6.598;2023-03-14T01:12:35;10.60;99.90
52979;DHT22;63430;53.186;6.598;2023-03-14T01:14:38;10.30;99.90
52979;DHT22;63430;53.186;6.598;2023-03-14T01:16:40;10.30;99.90
52979;DHT22;63430;53.186;6.598;2023-03-14T01:18:44;10.30;99.90
52979;DHT22;63430;53.186;6.598;2023-03-14T01:20:51;10.20;99.90
52979;DHT22;63430;53.186;6.598;2023-03-14T01:22:53;10.20;99.90
52979;DHT22;63430;53.186;6.598;2023-03-14T01:24:56;10.20;99.90
52979;DHT22;63430;53.186;6.598;2023-03-14T01:26:59;10.40;99.90
52979;DHT22;63430;53.186;6.598;2023-03-14T01:29:03;10.30;99.90
52979;DHT22;63430;53.186;6.598;2023-03-14T01:31:11;10.30;99.90
52979;DHT22;63430;53.186;6.598;2023-03-14T01:33:14;10.30;99.90
52979;DHT22;63430;53.186;6.598;2023-03-14T01:35:19;10.30;99.90
52979;DHT22;63430;53.186;6.598;2023-03-14T01:37:24;10.30;99.90
52979;DHT22;63430;53.186;6.598;2023-03-14T01:39:27;10.30;99.90
52979;DHT22;63430;53.186;6.598;2023-03-14T01:41:31;10.30;99.90
52979;DHT22;63430;53.186;6.598;2023-03-14T01:43:35;10.30;99.90
52979;DHT22;63430;53.186;6.598;2023-03-14T01:48:22;10.40;99.90
52979;DHT22;63430;53.186;6.598;2023-03-14T01:50:28;10.40;99.90
52979;DHT22;63430;53.186;6.598;2023-03-14T01:52:37;10.90;99.90
52979;DHT22;63430;53.186;6.598;2023-03-14T01:54:47;10.40;99.90
52979;DHT22;63430;53.186;6.598;2023-03-14T01:56:56;10.40;99.90
52979;DHT22;63430;53.186;6.598;2023-03-14T01:59:03;10.40;99.90
52979;DHT22;63430;53.186;6.598;2023-03-14T02:01:07;10.40;99.90
52979;DHT22;63430;53.186;6.598;2023-03-14T02:03:17;10.50;99.90
52979;DHT22;63430;53.186;6.598;2023-03-14T02:05:24;10.50;99.90
52979;DHT22;63430;53.186;6.598;2023-03-14T02:07:43;10.40;99.90
52979;DHT22;63430;53.186;6.598;2023-03-14T02:09:56;10.40;99.90
52979;DHT22;63430;53.186;6.598;2023-03-14T02:12:13;10.70;99.90
52979;DHT22;63430;53.186;6.598;2023-03-14T02:14:29;10.30;99.90
52979;DHT22;63430;53.186;6.598;2023-03-14T02:16:51;10.40;99.90
52979;DHT22;63430;53.186;6.598;2023-03-14T02:19:11;10.30;99.90
52979;DHT22;63430;53.186;6.598;2023-03-14T02:21:42;10.40;99.90
52979;DHT22;63430;53.186;6.598;2023-03-14T02:23:57;10.30;99.90
52979;DHT22;63430;53.186;6.598;2023-03-14T02:26:13;10.20;99.90
52979;DHT22;63430;53.186;6.598;2023-03-14T02:28:20;10.20;99.90
52979;DHT22;63430;53.186;6.598;2023-03-14T02:30:30;10.10;99.90
52979;DHT22;63430;53.186;6.598;2023-03-14T02:32:36;10.10;99.90
52979;DHT22;63430;53.186;6.598;2023-03-14T02:34:42;10.00;99.90
52979;DHT22;63430;53.186;6.598;2023-03-14T02:36:47;9.30;99.90
52979;DHT22;63430;53.186;6.598;2023-03-14T02:38:52;10.00;99.90
52979;DHT22;63430;53.186;6.598;2023-03-14T02:41:00;9.90;99.90
52979;DHT22;63430;53.186;6.598;2023-03-14T02:43:04;10.00;99.90
52979;DHT22;63430;53.186;6.598;2023-03-14T02:47:45;9.90;99.90
52979;DHT22;63430;53.186;6.598;2023-03-14T02:49:51;9.90;99.90
52979;DHT22;63430;53.186;6.598;2023-03-14T02:51:55;10.90;99.90
52979;DHT22;63430;53.186;6.598;2023-03-14T02:53:57;9.90;99.90
52979;DHT22;63430;53.186;6.598;2023-03-14T02:56:00;10.00;99.90
52979;DHT22;63430;53.186;6.598;2023-03-14T02:58:08;10.10;99.90
52979;DHT22;63430;53.186;6.598;2023-03-14T03:00:12;10.00;99.90
52979;DHT22;63430;53.186;6.598;2023-03-14T03:02:16;9.90;99.90
52979;DHT22;63430;53.186;6.598;2023-03-14T03:04:21;9.90;99.90
52979;DHT22;63430;53.186;6.598;2023-03-14T03:06:24;9.90;99.90
52979;DHT22;63430;53.186;6.598;2023-03-14T03:08:27;9.90;99.90
52979;DHT22;63430;53.186;6.598;2023-03-14T03:10:31;10.00;99.90
52979;DHT22;63430;53.186;6.598;2023-03-14T03:12:34;9.90;99.90
52979;DHT22;63430;53.186;6.598;2023-03-14T03:14:37;9.90;99.90
52979;DHT22;63430;53.186;6.598;2023-03-14T03:16:40;9.80;99.90
52979;DHT22;63430;53.186;6.598;2023-03-14T03:18:46;9.70;99.90
52979;DHT22;63430;53.186;6.598;2023-03-14T03:20:51;9.70;99.90
52979;DHT22;63430;53.186;6.598;2023-03-14T03:22:54;9.70;99.90
52979;DHT22;63430;53.186;6.598;2023-03-14T03:24:56;9.60;99.90
52979;DHT22;63430;53.186;6.598;2023-03-14T03:27:01;9.60;99.90
52979;DHT22;63430;53.186;6.598;2023-03-14T03:29:03;9.40;99.90
52979;DHT22;63430;53.186;6.598;2023-03-14T03:31:10;9.40;99.90
52979;DHT22;63430;53.186;6.598;2023-03-14T03:33:14;9.40;99.90
52979;DHT22;63430;53.186;6.598;2023-03-14T03:35:19;9.30;99.90
52979;DHT22;63430;53.186;6.598;2023-03-14T03:37:24;9.30;99.90
52979;DHT22;63430;53.186;6.598;2023-03-14T03:39:27;8.60;99.90
52979;DHT22;63430;53.186;6.598;2023-03-14T03:41:31;9.20;99.90
52979;DHT22;63430;53.186;6.598;2023-03-14T03:43:34;9.20;99.90
52979;DHT22;63430;53.186;6.598;2023-03-14T03:45:38;9.20;99.90
52979;DHT22;63430;53.186;6.598;2023-03-14T03:47:41;9.20;99.90
52979;DHT22;63430;53.186;6.598;2023-03-14T03:49:43;9.30;99.90
52979;DHT22;63430;53.186;6.598;2023-03-14T03:51:46;9.20;99.90
52979;DHT22;63430;53.186;6.598;2023-03-14T03:53:52;9.20;99.90
52979;DHT22;63430;53.186;6.598;2023-03-14T03:56:02;9.20;99.90
52979;DHT22;63430;53.186;6.598;2023-03-14T03:58:04;9.20;99.90
52979;DHT22;63430;53.186;6.598;2023-03-14T04:00:10;9.20;99.90
52979;DHT22;63430;53.186;6.598;2023-03-14T04:02:19;9.20;99.90
52979;DHT22;63430;53.186;6.598;2023-03-14T04:04:24;9.30;99.90
52979;DHT22;63430;53.186;6.598;2023-03-14T04:06:28;9.20;99.90
52979;DHT22;63430;53.186;6.598;2023-03-14T04:08:33;9.20;99.90
52979;DHT22;63430;53.186;6.598;2023-03-14T04:10:38;9.20;99.90
52979;DHT22;63430;53.186;6.598;2023-03-14T04:12:44;9.20;99.90
52979;DHT22;63430;53.186;6.598;2023-03-14T04:14:52;9.20;99.90
52979;DHT22;63430;53.186;6.598;2023-03-14T04:16:56;9.40;99.90
52979;DHT22;63430;53.186;6.598;2023-03-14T04:18:59;9.20;99.90
52979;DHT22;63430;53.186;6.598;2023-03-14T04:21:02;9.80;99.90
52979;DHT22;63430;53.186;6.598;2023-03-14T04:23:14;9.20;99.90
52979;DHT22;63430;53.186;6.598;2023-03-14T04:25:17;9.60;99.90
52979;DHT22;63430;53.186;6.598;2023-03-14T04:27:30;9.20;99.90
52979;DHT22;63430;53.186;6.598;2023-03-14T04:29:34;9.30;99.90
52979;DHT22;63430;53.186;6.598;2023-03-14T04:31:36;9.10;99.90
52979;DHT22;63430;53.186;6.598;2023-03-14T04:33:39;9.40;99.90
52979;DHT22;63430;53.186;6.598;2023-03-14T04:35:42;9.30;99.90
52979;DHT22;63430;53.186;6.598;2023-03-14T04:37:48;9.20;99.90
52979;DHT22;63430;53.186;6.598;2023-03-14T04:39:52;9.60;99.90
52979;DHT22;63430;53.186;6.598;2023-03-14T04:42:01;9.10;99.90
52979;DHT22;63430;53.186;6.598;2023-03-14T04:44:06;9.10;99.90
52979;DHT22;63430;53.186;6.598;2023-03-14T04:46:10;9.10;99.90
52979;DHT22;63430;53.186;6.598;2023-03-14T04:48:13;9.10;99.90
52979;DHT22;63430;53.186;6.598;2023-03-14T04:50:16;9.10;99.90
52979;DHT22;63430;53.186;6.598;2023-03-14T04:52:19;9.10;99.90
52979;DHT22;63430;53.186;6.598;2023-03-14T04:54:22;9.00;99.90
52979;DHT22;63430;53.186;6.598;2023-03-14T04:56:29;9.00;99.90
52979;DHT22;63430;53.186;6.598;2023-03-14T04:58:32;9.00;99.90
52979;DHT22;63430;53.186;6.598;2023-03-14T05:00:38;9.00;99.90
52979;DHT22;63430;53.186;6.598;2023-03-14T05:03:15;9.00;99.90
52979;DHT22;63430;53.186;6.598;2023-03-14T05:05:26;9.00;99.90
52979;DHT22;63430;53.186;6.598;2023-03-14T05:07:47;9.00;99.90
52979;DHT22;63430;53.186;6.598;2023-03-14T05:10:19;9.00;99.90
52979;DHT22;63430;53.186;6.598;2023-03-14T05:12:48;9.50;99.90
52979;DHT22;63430;53.186;6.598;2023-03-14T05:15:19;9.00;99.90
52979;DHT22;63430;53.186;6.598;2023-03-14T05:17:39;9.00;99.90
52979;DHT22;63430;53.186;6.598;2023-03-14T05:20:17;10.10;99.90
52979;DHT22;63430;53.186;6.598;2023-03-14T05:22:47;9.00;99.90
52979;DHT22;63430;53.186;6.598;2023-03-14T05:25:15;8.90;99.90
52979;DHT22;63430;53.186;6.598;2023-03-14T05:27:45;8.90;99.90
52979;DHT22;63430;53.186;6.598;2023-03-14T05:30:19;9.00;99.90
52979;DHT22;63430;53.186;6.598;2023-03-14T05:32:45;8.90;99.90
52979;DHT22;63430;53.186;6.598;2023-03-14T05:35:07;8.90;99.90
52979;DHT22;63430;53.186;6.598;2023-03-14T05:37:23;8.90;99.90
52979;DHT22;63430;53.186;6.598;2023-03-14T05:39:48;10.00;99.90
52979;DHT22;63430;53.186;6.598;2023-03-14T05:42:09;8.90;99.90
52979;DHT22;63430;53.186;6.598;2023-03-14T05:44:26;8.90;99.90
52979;DHT22;63430;53.186;6.598;2023-03-14T05:46:49;8.90;99.90
52979;DHT22;63430;53.186;6.598;2023-03-14T05:49:06;8.80;99.90
52979;DHT22;63430;53.186;6.598;2023-03-14T05:51:39;8.90;99.90
52979;DHT22;63430;53.186;6.598;2023-03-14T05:54:23;8.90;99.90
52979;DHT22;63430;53.186;6.598;2023-03-14T05:57:11;8.90;99.90
52979;DHT22;63430;53.186;6.598;2023-03-14T05:59:55;8.90;99.90
52979;DHT22;63430;53.186;6.598;2023-03-14T06:02:49;8.80;99.90
52979;DHT22;63430;53.186;6.598;2023-03-14T06:05:20;8.80;99.90
52979;DHT22;63430;53.186;6.598;2023-03-14T06:07:25;8.80;99.90
52979;DHT22;63430;53.186;6.598;2023-03-14T06:09:28;8.80;99.90
52979;DHT22;63430;53.186;6.598;2023-03-14T06:11:33;8.80;99.90
52979;DHT22;63430;53.186;6.598;2023-03-14T06:13:37;8.80;99.90
52979;DHT22;63430;53.186;6.598;2023-03-14T06:15:39;8.80;99.90
52979;DHT22;63430;53.186;6.598;2023-03-14T06:17:43;8.80;99.90
52979;DHT22;63430;53.186;6.598;2023-03-14T06:19:47;8.80;99.90
52979;DHT22;63430;53.186;6.598;2023-03-14T06:21:52;8.80;99.90
52979;DHT22;63430;53.186;6.598;2023-03-14T06:23:55;8.80;99.90
52979;DHT22;63430;53.186;6.598;2023-03-14T06:25:58;9.40;99.90
52979;DHT22;63430;53.186;6.598;2023-03-14T06:28:05;8.80;99.90
52979;DHT22;63430;53.186;6.598;2023-03-14T06:30:12;8.80;99.90
52979;DHT22;63430;53.186;6.598;2023-03-14T06:32:15;8.90;99.90
52979;DHT22;63430;53.186;6.598;2023-03-14T06:34:18;9.50;99.90
52979;DHT22;63430;53.186;6.598;2023-03-14T06:36:20;8.90;99.90
52979;DHT22;63430;53.186;6.598;2023-03-14T06:38:27;8.80;99.90
52979;DHT22;63430;53.186;6.598;2023-03-14T06:40:31;8.70;99.90
52979;DHT22;63430;53.186;6.598;2023-03-14T06:42:43;9.30;99.90
52979;DHT22;63430;53.186;6.598;2023-03-14T06:44:46;8.20;99.90
52979;DHT22;63430;53.186;6.598;2023-03-14T06:46:49;8.30;99.90
52979;DHT22;63430;53.186;6.598;2023-03-14T06:48:53;7.80;99.90
52979;DHT22;63430;53.186;6.598;2023-03-14T06:51:03;8.90;99.90
52979;DHT22;63430;53.186;6.598;2023-03-14T06:53:12;7.50;99.90
52979;DHT22;63430;53.186;6.598;2023-03-14T06:55:28;7.90;99.90
52979;DHT22;63430;53.186;6.598;2023-03-14T06:57:32;8.20;99.90
52979;DHT22;63430;53.186;6.598;2023-03-14T06:59:44;7.70;99.90
52979;DHT22;63430;53.186;6.598;2023-03-14T07:01:54;6.60;99.90
52979;DHT22;63430;53.186;6.598;2023-03-14T07:04:03;6.30;99.90
52979;DHT22;63430;53.186;6.598;2023-03-14T07:06:08;7.80;99.90
52979;DHT22;63430;53.186;6.598;2023-03-14T07:08:11;6.10;99.90
52979;DHT22;63430;53.186;6.598;2023-03-14T07:10:18;5.80;99.90
52979;DHT22;63430;53.186;6.598;2023-03-14T07:12:30;5.60;99.90
52979;DHT22;63430;53.186;6.598;2023-03-14T07:14:34;5.60;99.90
52979;DHT22;63430;53.186;6.598;2023-03-14T07:16:38;6.80;99.90
52979;DHT22;63430;53.186;6.598;2023-03-14T07:18:45;5.30;99.90
52979;DHT22;63430;53.186;6.598;2023-03-14T07:20:52;5.40;99.90
52979;DHT22;63430;53.186;6.598;2023-03-14T07:23:02;4.20;99.90
52979;DHT22;63430;53.186;6.598;2023-03-14T07:25:17;5.00;99.90
52979;DHT22;63430;53.186;6.598;2023-03-14T07:27:20;5.00;99.90
52979;DHT22;63430;53.186;6.598;2023-03-14T07:29:26;4.00;99.90
52979;DHT22;63430;53.186;6.598;2023-03-14T07:31:30;4.80;99.90
52979;DHT22;63430;53.186;6.598;2023-03-14T07:33:33;4.80;99.90
52979;DHT22;63430;53.186;6.598;2023-03-14T07:35:39;6.30;99.90
52979;DHT22;63430;53.186;6.598;2023-03-14T07:37:46;4.50;99.90
52979;DHT22;63430;53.186;6.598;2023-03-14T07:39:49;5.80;99.90
52979;DHT22;63430;53.186;6.598;2023-03-14T07:41:56;4.40;99.90
52979;DHT22;63430;53.186;6.598;2023-03-14T07:44:20;4.40;99.90
52979;DHT22;63430;53.186;6.598;2023-03-14T07:46:28;5.60;99.90
52979;DHT22;63430;53.186;6.598;2023-03-14T07:48:33;4.30;99.90
52979;DHT22;63430;53.186;6.598;2023-03-14T07:50:36;4.60;99.90
52979;DHT22;63430;53.186;6.598;2023-03-14T07:52:40;5.70;99.90
52979;DHT22;63430;53.186;6.598;2023-03-14T07:54:45;4.40;99.90
52979;DHT22;63430;53.186;6.598;2023-03-14T07:56:48;4.70;99.90
52979;DHT22;63430;53.186;6.598;2023-03-14T07:58:50;4.50;99.90
52979;DHT22;63430;53.186;6.598;2023-03-14T08:00:54;5.30;99.90
52979;DHT22;63430;53.186;6.598;2023-03-14T08:03:03;4.50;99.90
52979;DHT22;63430;53.186;6.598;2023-03-14T08:05:06;4.40;99.90
52979;DHT22;63430;53.186;6.598;2023-03-14T08:07:10;4.40;99.90
52979;DHT22;63430;53.186;6.598;2023-03-14T08:09:13;4.50;99.90
52979;DHT22;63430;53.186;6.598;2023-03-14T08:11:16;4.50;99.90
52979;DHT22;63430;53.186;6.598;2023-03-14T08:13:20;4.50;99.90
52979;DHT22;63430;53.186;6.598;2023-03-14T08:15:23;4.50;99.90
52979;DHT22;63430;53.186;6.598;2023-03-14T08:17:29;3.50;99.90
52979;DHT22;63430;53.186;6.598;2023-03-14T08:19:34;4.60;99.90
52979;DHT22;63430;53.186;6.598;2023-03-14T08:21:37;4.70;99.90
52979;DHT22;63430;53.186;6.598;2023-03-14T08:23:40;4.70;99.90
52979;DHT22;63430;53.186;6.598;2023-03-14T08:25:42;6.30;99.90
52979;DHT22;63430;53.186;6.598;2023-03-14T08:27:48;6.50;99.90
52979;DHT22;63430;53.186;6.598;2023-03-14T08:29:54;4.90;99.90
52979;DHT22;63430;53.186;6.598;2023-03-14T08:31:57;5.00;99.90
52979;DHT22;63430;53.186;6.598;2023-03-14T08:34:00;5.10;99.90
52979;DHT22;63430;53.186;6.598;2023-03-14T08:36:12;5.10;99.90
52979;DHT22;63430;53.186;6.598;2023-03-14T08:38:18;5.30;99.90
52979;DHT22;63430;53.186;6.598;2023-03-14T08:40:24;5.30;99.90
52979;DHT22;63430;53.186;6.598;2023-03-14T08:42:33;5.30;99.90
52979;DHT22;63430;53.186;6.598;2023-03-14T08:44:42;5.30;99.90
52979;DHT22;63430;53.186;6.598;2023-03-14T08:46:49;5.40;99.90
52979;DHT22;63430;53.186;6.598;2023-03-14T08:48:53;5.50;99.90
52979;DHT22;63430;53.186;6.598;2023-03-14T08:50:56;5.50;99.90
52979;DHT22;63430;53.186;6.598;2023-03-14T08:53:01;6.20;99.90
52979;DHT22;63430;53.186;6.598;2023-03-14T08:55:10;5.80;99.90
52979;DHT22;63430;53.186;6.598;2023-03-14T08:57:16;5.60;99.90
52979;DHT22;63430;53.186;6.598;2023-03-14T08:59:19;5.70;99.90
52979;DHT22;63430;53.186;6.598;2023-03-14T09:01:23;5.70;99.90
52979;DHT22;63430;53.186;6.598;2023-03-14T09:04:07;5.80;99.90
52979;DHT22;63430;53.186;6.598;2023-03-14T09:06:10;5.80;99.90
52979;DHT22;63430;53.186;6.598;2023-03-14T09:08:16;6.10;99.90
52979;DHT22;63430;53.186;6.598;2023-03-14T09:10:19;5.90;99.90
52979;DHT22;63430;53.186;6.598;2023-03-14T09:12:27;6.00;99.90
52979;DHT22;63430;53.186;6.598;2023-03-14T09:14:29;6.10;99.90
52979;DHT22;63430;53.186;6.598;2023-03-14T09:16:33;6.90;99.90
52979;DHT22;63430;53.186;6.598;2023-03-14T09:18:36;6.20;99.90
52979;DHT22;63430;53.186;6.598;2023-03-14T09:20:40;6.30;99.90
52979;DHT22;63430;53.186;6.598;2023-03-14T09:22:43;6.40;99.90
52979;DHT22;63430;53.186;6.598;2023-03-14T09:24:49;6.50;99.90
52979;DHT22;63430;53.186;6.598;2023-03-14T09:26:54;6.50;99.90
52979;DHT22;63430;53.186;6.598;2023-03-14T09:28:57;6.50;99.90
52979;DHT22;63430;53.186;6.598;2023-03-14T09:31:06;6.40;99.90
52979;DHT22;63430;53.186;6.598;2023-03-14T09:33:10;6.40;99.90
52979;DHT22;63430;53.186;6.598;2023-03-14T09:35:12;6.40;99.90
52979;DHT22;63430;53.186;6.598;2023-03-14T09:37:15;6.40;99.90
52979;DHT22;63430;53.186;6.598;2023-03-14T09:39:22;6.40;99.90
52979;DHT22;63430;53.186;6.598;2023-03-14T09:41:29;6.40;99.90
52979;DHT22;63430;53.186;6.598;2023-03-14T09:43:35;6.40;99.90
52979;DHT22;63430;53.186;6.598;2023-03-14T09:45:40;6.30;99.90
52979;DHT22;63430;53.186;6.598;2023-03-14T09:47:46;7.00;99.90
52979;DHT22;63430;53.186;6.598;2023-03-14T09:50:00;6.20;99.90
52979;DHT22;63430;53.186;6.598;2023-03-14T09:52:07;6.20;99.90
52979;DHT22;63430;53.186;6.598;2023-03-14T09:54:26;6.30;99.90
52979;DHT22;63430;53.186;6.598;2023-03-14T09:56:34;5.50;99.90
52979;DHT22;63430;53.186;6.598;2023-03-14T09:58:39;6.50;99.90
52979;DHT22;63430;53.186;6.598;2023-03-14T10:00:47;6.50;99.90
52979;DHT22;63430;53.186;6.598;2023-03-14T10:03:19;6.60;99.90
52979;DHT22;63430;53.186;6.598;2023-03-14T10:05:23;6.60;99.90
52979;DHT22;63430;53.186;6.598;2023-03-14T10:07:31;7.20;99.90
52979;DHT22;63430;53.186;6.598;2023-03-14T10:09:34;6.60;99.90
52979;DHT22;63430;53.186;6.598;2023-03-14T10:11:41;7.10;99.90
52979;DHT22;63430;53.186;6.598;2023-03-14T10:14:05;6.50;99.90
52979;DHT22;63430;53.186;6.598;2023-03-14T10:16:09;7.00;99.90
52979;DHT22;63430;53.186;6.598;2023-03-14T10:18:15;6.50;99.90
52979;DHT22;63430;53.186;6.598;2023-03-14T10:20:30;6.50;99.90
52979;DHT22;63430;53.186;6.598;2023-03-14T10:22:37;6.60;99.90
52979;DHT22;63430;53.186;6.598;2023-03-14T10:24:45;7.20;99.90
52979;DHT22;63430;53.186;6.598;2023-03-14T10:26:55;6.60;99.90
52979;DHT22;63430;53.186;6.598;2023-03-14T10:29:03;6.70;99.90
52979;DHT22;63430;53.186;6.598;2023-03-14T10:31:06;8.10;99.70
52979;DHT22;63430;53.186;6.598;2023-03-14T10:33:10;6.70;98.70
52979;DHT22;63430;53.186;6.598;2023-03-14T10:35:20;7.20;99.30
52979;DHT22;63430;53.186;6.598;2023-03-14T10:37:31;6.80;97.90
52979;DHT22;63430;53.186;6.598;2023-03-14T10:39:39;6.80;91.70
52979;DHT22;63430;53.186;6.598;2023-03-14T10:41:51;6.80;91.60
52979;DHT22;63430;53.186;6.598;2023-03-14T10:43:57;8.30;91.10
52979;DHT22;63430;53.186;6.598;2023-03-14T10:46:06;6.70;91.30
52979;DHT22;63430;53.186;6.598;2023-03-14T10:48:33;6.70;80.50
52979;DHT22;63430;53.186;6.598;2023-03-14T10:50:37;7.60;90.90
52979;DHT22;63430;53.186;6.598;2023-03-14T10:52:46;6.80;84.90
52979;DHT22;63430;53.186;6.598;2023-03-14T10:55:10;7.00;86.10
52979;DHT22;63430;53.186;6.598;2023-03-14T10:57:22;7.20;86.70
52979;DHT22;63430;53.186;6.598;2023-03-14T10:59:27;7.20;86.00
52979;DHT22;63430;53.186;6.598;2023-03-14T11:01:40;7.80;87.20
52979;DHT22;63430;53.186;6.598;2023-03-14T11:04:13;7.50;76.50
52979;DHT22;63430;53.186;6.598;2023-03-14T11:06:21;7.20;73.40
52979;DHT22;63430;53.186;6.598;2023-03-14T11:08:31;7.10;75.50
52979;DHT22;63430;53.186;6.598;2023-03-14T11:10:39;5.90;73.90
52979;DHT22;63430;53.186;6.598;2023-03-14T11:12:59;7.00;71.70
52979;DHT22;63430;53.186;6.598;2023-03-14T11:15:20;7.00;64.30
52979;DHT22;63430;53.186;6.598;2023-03-14T11:17:29;8.20;70.20
52979;DHT22;63430;53.186;6.598;2023-03-14T11:19:47;7.10;67.10
52979;DHT22;63430;53.186;6.598;2023-03-14T11:21:57;7.30;63.90
52979;DHT22;63430;53.186;6.598;2023-03-14T11:24:19;8.70;66.00
52979;DHT22;63430;53.186;6.598;2023-03-14T11:26:29;7.30;62.90
52979;DHT22;63430;53.186;6.598;2023-03-14T11:28:39;7.20;59.80
52979;DHT22;63430;53.186;6.598;2023-03-14T11:30:50;7.00;54.90
52979;DHT22;63430;53.186;6.598;2023-03-14T11:32:58;7.00;57.50
52979;DHT22;63430;53.186;6.598;2023-03-14T11:35:07;7.10;55.10
52979;DHT22;63430;53.186;6.598;2023-03-14T11:37:19;7.20;55.10
52979;DHT22;63430;53.186;6.598;2023-03-14T11:39:24;7.10;53.10
52979;DHT22;63430;53.186;6.598;2023-03-14T11:41:32;7.00;54.10
52979;DHT22;63430;53.186;6.598;2023-03-14T11:43:39;7.10;51.30
52979;DHT22;63430;53.186;6.598;2023-03-14T11:45:48;7.00;51.00
52979;DHT22;63430;53.186;6.598;2023-03-14T11:48:13;6.80;52.60
52979;DHT22;63430;53.186;6.598;2023-03-14T11:50:20;6.70;54.40
52979;DHT22;63430;53.186;6.598;2023-03-14T11:52:28;6.80;55.50
52979;DHT22;63430;53.186;6.598;2023-03-14T11:54:37;7.00;53.90
52979;DHT22;63430;53.186;6.598;2023-03-14T11:56:53;7.60;55.90
52979;DHT22;63430;53.186;6.598;2023-03-14T11:59:04;7.40;56.50
52979;DHT22;63430;53.186;6.598;2023-03-14T12:01:22;8.10;55.10
52979;DHT22;63430;53.186;6.598;2023-03-14T12:03:29;7.70;54.60
52979;DHT22;63430;53.186;6.598;2023-03-14T12:05:46;7.80;53.20
52979;DHT22;63430;53.186;6.598;2023-03-14T12:10:25;7.90;54.50
52979;DHT22;63430;53.186;6.598;2023-03-14T12:12:37;7.70;52.70
52979;DHT22;63430;53.186;6.598;2023-03-14T12:14:53;7.00;51.80
52979;DHT22;63430;53.186;6.598;2023-03-14T12:17:19;7.40;54.00
52979;DHT22;63430;53.186;6.598;2023-03-14T12:19:33;7.40;56.50
52979;DHT22;63430;53.186;6.598;2023-03-14T12:21:48;8.80;55.10
52979;DHT22;63430;53.186;6.598;2023-03-14T12:23:53;8.50;55.90
52979;DHT22;63430;53.186;6.598;2023-03-14T12:26:13;7.20;56.80
52979;DHT22;63430;53.186;6.598;2023-03-14T12:28:20;7.10;57.80
52979;DHT22;63430;53.186;6.598;2023-03-14T12:30:27;7.10;55.90
52979;DHT22;63430;53.186;6.598;2023-03-14T12:32:30;7.00;56.90
52979;DHT22;63430;53.186;6.598;2023-03-14T12:34:34;7.10;58.80
52979;DHT22;63430;53.186;6.598;2023-03-14T12:36:55;7.00;61.50
52979;DHT22;63430;53.186;6.598;2023-03-14T12:39:06;7.00;59.90
52979;DHT22;63430;53.186;6.598;2023-03-14T12:41:16;7.00;59.40
52979;DHT22;63430;53.186;6.598;2023-03-14T12:43:26;6.90;59.70
52979;DHT22;63430;53.186;6.598;2023-03-14T12:45:32;6.80;63.10
52979;DHT22;63430;53.186;6.598;2023-03-14T12:47:51;6.80;64.00
52979;DHT22;63430;53.186;6.598;2023-03-14T12:49:55;6.80;66.30
52979;DHT22;63430;53.186;6.598;2023-03-14T12:52:00;6.80;65.20
52979;DHT22;63430;53.186;6.598;2023-03-14T12:56:56;6.90;66.20
52979;DHT22;63430;53.186;6.598;2023-03-14T13:01:47;6.90;61.40
52979;DHT22;63430;53.186;6.598;2023-03-14T13:03:51;6.80;64.80
52979;DHT22;63430;53.186;6.598;2023-03-14T13:05:57;6.70;66.40
52979;DHT22;63430;53.186;6.598;2023-03-14T13:08:05;6.70;60.70
52979;DHT22;63430;53.186;6.598;2023-03-14T13:10:22;6.70;59.60
52979;DHT22;63430;53.186;6.598;2023-03-14T13:12:28;6.70;54.40
52979;DHT22;63430;53.186;6.598;2023-03-14T13:14:33;6.80;54.70
52979;DHT22;63430;53.186;6.598;2023-03-14T13:16:36;6.80;53.30
52979;DHT22;63430;53.186;6.598;2023-03-14T13:18:45;7.10;54.10
52979;DHT22;63430;53.186;6.598;2023-03-14T13:20:53;7.60;50.50
52979;DHT22;63430;53.186;6.598;2023-03-14T13:22:56;7.20;50.40
52979;DHT22;63430;53.186;6.598;2023-03-14T13:25:00;7.30;52.10
52979;DHT22;63430;53.186;6.598;2023-03-14T13:27:04;8.30;53.60
52979;DHT22;63430;53.186;6.598;2023-03-14T13:29:14;7.50;54.30
52979;DHT22;63430;53.186;6.598;2023-03-14T13:31:22;8.70;53.40
52979;DHT22;63430;53.186;6.598;2023-03-14T13:33:25;7.60;53.10
52979;DHT22;63430;53.186;6.598;2023-03-14T13:35:39;7.50;53.50
52979;DHT22;63430;53.186;6.598;2023-03-14T13:37:42;7.50;54.80
52979;DHT22;63430;53.186;6.598;2023-03-14T13:39:49;7.60;53.90
52979;DHT22;63430;53.186;6.598;2023-03-14T13:41:53;7.60;50.60
52979;DHT22;63430;53.186;6.598;2023-03-14T13:44:02;7.50;49.00
52979;DHT22;63430;53.186;6.598;2023-03-14T13:46:10;7.40;49.10
52979;DHT22;63430;53.186;6.598;2023-03-14T13:48:17;7.20;50.60
52979;DHT22;63430;53.186;6.598;2023-03-14T13:50:19;8.20;50.90
52979;DHT22;63430;53.186;6.598;2023-03-14T13:52:32;8.30;51.80
52979;DHT22;63430;53.186;6.598;2023-03-14T13:54:38;7.20;52.30